createdAt,value
2022-09-17T00:01:04.659Z,11.25
2022-09-17T00:03:34.351Z,10.45
2022-09-17T00:06:08.973Z,11.23
2022-09-17T00:08:39.308Z,10.15
2022-09-17T00:11:11.167Z,11.40
2022-09-17T00:13:37.959Z,10.50
2022-09-17T00:16:04.940Z,10.18
2022-09-17T00:18:31.675Z,9.48
2022-09-17T00:20:58.489Z,10.20
2022-09-17T00:23:25.509Z,10.85
2022-09-17T00:25:52.184Z,9.82
2022-09-17T00:28:18.808Z,10.18
2022-09-17T00:30:46.733Z,9.43
2022-09-17T00:33:17.709Z,9.85
2022-09-17T00:35:44.916Z,11.07
2022-09-17T00:38:11.920Z,10.02
2022-09-17T00:40:38.920Z,10.82
2022-09-17T00:43:11.595Z,10.90
2022-09-17T00:45:39.912Z,10.35
2022-09-17T00:48:07.134Z,10.23
2022-09-17T00:50:41.936Z,10.30
2022-09-17T00:53:12.371Z,10.43
2022-09-17T00:55:59.567Z,12.35
2022-09-17T00:58:27.206Z,12.07
2022-09-17T01:00:54.073Z,11.90
2022-09-17T01:03:20.893Z,11.45
2022-09-17T01:05:51.978Z,11.80
2022-09-17T01:08:37.117Z,12.23
2022-09-17T01:11:09.807Z,11.82
2022-09-17T01:14:01.250Z,12.98
2022-09-17T01:16:39.933Z,12.90
2022-09-17T01:19:06.566Z,13.27
2022-09-17T01:21:42.272Z,12.30
2022-09-17T01:24:15.445Z,12.05
2022-09-17T01:27:10.043Z,11.63
2022-09-17T01:29:39.458Z,11.85
2022-09-17T01:32:13.269Z,12.45
2022-09-17T01:35:06.501Z,12.85
2022-09-17T01:37:38.792Z,12.77
2022-09-17T01:40:09.633Z,12.75
2022-09-17T01:43:10.473Z,12.60
2022-09-17T01:45:57.246Z,12.20
2022-09-17T01:48:30.701Z,12.77
2022-09-17T01:51:12.042Z,12.55
2022-09-17T01:53:51.775Z,12.52
2022-09-17T01:56:24.799Z,11.07
2022-09-17T01:59:00.017Z,12.10
2022-09-17T02:01:29.591Z,12.05
2022-09-17T02:04:13.125Z,10.68
2022-09-17T02:06:44.645Z,12.63
2022-09-17T02:09:23.625Z,12.20
2022-09-17T02:11:55.734Z,13.18
2022-09-17T02:14:27.569Z,13.15
2022-09-17T02:17:35.643Z,10.18
2022-09-17T02:20:02.737Z,11.57
2022-09-17T02:22:38.739Z,10.50
2022-09-17T02:25:34.317Z,12.15
2022-09-17T02:28:08.740Z,14.82
2022-09-17T02:30:35.437Z,12.32
2022-09-17T02:33:03.576Z,12.93
2022-09-17T02:35:31.741Z,12.93
2022-09-17T02:37:59.614Z,11.88
2022-09-17T02:40:28.486Z,12.45
2022-09-17T02:46:18.377Z,13.85
2022-09-17T02:48:54.030Z,13.18
2022-09-17T02:51:24.541Z,14.48
2022-09-17T02:54:30.998Z,13.63
2022-09-17T02:57:20.050Z,14.68
2022-09-17T02:59:58.610Z,14.60
2022-09-17T03:02:35.189Z,14.52
2022-09-17T03:05:02.154Z,14.65
2022-09-17T03:07:29.284Z,15.13
2022-09-17T03:09:55.910Z,16.33
2022-09-17T03:12:26.829Z,14.95
2022-09-17T03:14:53.494Z,15.25
2022-09-17T03:17:20.166Z,14.40
2022-09-17T03:19:46.867Z,15.35
2022-09-17T03:22:13.819Z,13.93
2022-09-17T03:24:40.635Z,13.55
2022-09-17T03:27:07.253Z,14.93
2022-09-17T03:29:33.889Z,16.02
2022-09-17T03:32:01.165Z,14.68
2022-09-17T03:34:27.816Z,17.42
2022-09-17T03:36:54.465Z,18.25
2022-09-17T03:39:21.145Z,17.92
2022-09-17T03:41:47.829Z,20.33
2022-09-17T03:44:15.551Z,22.05
2022-09-17T03:46:42.368Z,24.63
2022-09-17T03:49:09.225Z,22.92
2022-09-17T03:51:36.002Z,24.08
2022-09-17T03:54:03.403Z,24.25
2022-09-17T03:56:30.131Z,24.15
2022-09-17T03:59:00.830Z,23.80
2022-09-17T04:01:28.360Z,21.92
2022-09-17T04:03:55.405Z,24.08
2022-09-17T04:06:22.220Z,20.38
2022-09-17T04:08:48.857Z,18.25
2022-09-17T04:11:15.509Z,17.95
2022-09-17T04:13:42.178Z,21.58
2022-09-17T04:16:08.935Z,20.33
2022-09-17T04:18:35.711Z,18.10
2022-09-17T04:21:02.391Z,16.92
2022-09-17T04:23:29.104Z,17.00
2022-09-17T04:25:55.737Z,17.65
2022-09-17T04:28:22.417Z,14.07
2022-09-17T04:30:49.382Z,14.10
2022-09-17T04:33:16.037Z,15.02
2022-09-17T04:35:43.604Z,14.25
2022-09-17T04:38:10.318Z,14.20
2022-09-17T04:40:37.138Z,15.10
2022-09-17T04:43:04.260Z,15.90
2022-09-17T04:45:33.478Z,18.30
2022-09-17T04:48:00.377Z,19.98
2022-09-17T04:50:27.019Z,19.42
2022-09-17T04:52:53.647Z,22.48
2022-09-17T04:55:20.384Z,21.52
2022-09-17T04:57:48.665Z,21.88
2022-09-17T05:00:17.596Z,21.20
2022-09-17T05:02:49.023Z,18.48
2022-09-17T05:05:16.841Z,18.02
2022-09-17T05:07:43.721Z,20.35
2022-09-17T05:10:11.615Z,14.35
2022-09-17T05:12:38.297Z,14.25
2022-09-17T05:15:05.587Z,13.30
2022-09-17T05:17:32.451Z,16.77
2022-09-17T05:19:59.135Z,13.05
2022-09-17T05:22:26.376Z,13.73
2022-09-17T05:24:53.000Z,14.52
2022-09-17T05:27:19.613Z,17.45
2022-09-17T05:29:46.308Z,16.77
2022-09-17T05:32:12.921Z,19.95
2022-09-17T05:34:40.573Z,20.58
2022-09-17T05:37:11.001Z,19.95
2022-09-17T05:39:37.637Z,23.42
2022-09-17T05:42:04.403Z,21.52
2022-09-17T05:44:31.321Z,21.88
2022-09-17T05:46:58.015Z,21.83
2022-09-17T05:49:24.677Z,23.38
2022-09-17T05:51:52.044Z,22.63
2022-09-17T05:54:18.776Z,23.48
2022-09-17T05:56:45.481Z,24.60
2022-09-17T05:59:12.679Z,20.48
2022-09-17T06:01:39.404Z,22.27
2022-09-17T06:04:06.068Z,21.65
2022-09-17T06:06:32.912Z,20.63
2022-09-17T06:09:00.220Z,19.55
2022-09-17T06:11:26.963Z,19.20
2022-09-17T06:13:54.850Z,19.25
2022-09-17T06:16:25.125Z,19.23
2022-09-17T06:18:53.154Z,18.65
2022-09-17T06:21:21.861Z,18.67
2022-09-17T06:23:49.816Z,21.70
2022-09-17T06:26:17.056Z,20.23
2022-09-17T06:28:43.706Z,16.67
2022-09-17T06:31:12.046Z,20.40
2022-09-17T06:33:38.904Z,15.88
2022-09-17T06:36:13.104Z,13.60
2022-09-17T06:38:40.677Z,13.43
2022-09-17T06:41:07.426Z,11.55
2022-09-17T06:43:34.327Z,10.10
2022-09-17T06:46:02.470Z,11.18
2022-09-17T06:48:30.598Z,7.88
2022-09-17T06:51:02.835Z,7.47
2022-09-17T06:53:30.071Z,6.22
2022-09-17T06:56:02.311Z,6.97
2022-09-17T06:58:32.654Z,7.00
2022-09-17T07:01:02.671Z,4.72
2022-09-17T07:03:30.699Z,5.43
2022-09-17T07:05:58.261Z,5.22
2022-09-17T07:08:26.238Z,5.95
2022-09-17T07:10:57.257Z,4.68
2022-09-17T07:13:25.314Z,4.60
2022-09-17T07:15:56.309Z,5.18
2022-09-17T07:18:23.445Z,5.35
2022-09-17T07:20:57.740Z,4.55
2022-09-17T07:23:25.832Z,4.22
2022-09-17T07:25:57.107Z,4.05
2022-09-17T07:28:24.370Z,3.22
2022-09-17T07:30:52.299Z,4.57
2022-09-17T07:33:24.762Z,4.18
2022-09-17T07:35:55.188Z,4.28
2022-09-17T07:38:22.865Z,4.43
2022-09-17T07:40:55.845Z,4.07
2022-09-17T07:43:22.523Z,3.65
2022-09-17T07:45:49.173Z,4.43
2022-09-17T07:48:15.989Z,4.13
2022-09-17T07:50:42.652Z,4.15
2022-09-17T07:53:09.363Z,3.67
2022-09-17T07:55:36.004Z,2.95
2022-09-17T07:58:02.667Z,3.45
2022-09-17T08:00:29.586Z,2.95
2022-09-17T08:02:56.882Z,3.30
2022-09-17T08:05:24.850Z,3.42
2022-09-17T08:07:52.751Z,3.78
2022-09-17T08:10:21.765Z,2.92
2022-09-17T08:12:55.682Z,3.35
2022-09-17T08:15:22.859Z,4.03
2022-09-17T08:17:50.378Z,3.55
2022-09-17T08:20:18.133Z,3.63
2022-09-17T08:22:49.861Z,3.35
2022-09-17T08:25:17.029Z,3.58
2022-09-17T08:27:44.303Z,3.22
2022-09-17T08:30:11.193Z,3.53
2022-09-17T08:32:37.984Z,3.60
2022-09-17T08:35:04.987Z,3.40
2022-09-17T08:37:31.925Z,3.42
2022-09-17T08:39:58.723Z,3.17
2022-09-17T08:42:31.400Z,3.67
2022-09-17T08:45:00.781Z,4.15
2022-09-17T08:47:36.470Z,3.78
2022-09-17T08:50:05.604Z,3.20
2022-09-17T08:52:47.544Z,3.38
2022-09-17T08:55:35.109Z,2.90
2022-09-17T08:58:40.238Z,2.80
2022-09-17T09:01:34.751Z,4.35
2022-09-17T09:04:51.959Z,4.45
2022-09-17T09:07:22.066Z,3.15
2022-09-17T09:10:07.132Z,4.63
2022-09-17T09:12:36.049Z,3.20
2022-09-17T09:15:06.869Z,3.53
2022-09-17T09:17:42.909Z,3.47
2022-09-17T09:20:18.618Z,4.05
2022-09-17T09:22:48.641Z,4.57
2022-09-17T09:25:23.220Z,4.82
2022-09-17T09:27:55.712Z,3.97
2022-09-17T09:30:24.406Z,4.95
2022-09-17T09:35:33.116Z,4.57
2022-09-17T09:38:02.754Z,4.20
2022-09-17T09:41:01.219Z,3.83
2022-09-17T09:43:59.894Z,4.75
2022-09-17T09:46:51.722Z,3.83
2022-09-17T09:49:24.429Z,3.08
2022-09-17T09:52:26.670Z,2.85
2022-09-17T09:55:07.629Z,3.20
2022-09-17T10:00:23.676Z,4.13
2022-09-17T10:05:16.989Z,4.18
2022-09-17T10:07:45.168Z,4.00
2022-09-17T10:10:11.976Z,3.83
2022-09-17T10:12:38.679Z,3.78
2022-09-17T10:15:27.596Z,3.78
2022-09-17T10:18:24.350Z,3.70
2022-09-17T10:20:55.073Z,4.22
2022-09-17T10:23:23.033Z,4.40
2022-09-17T10:25:50.275Z,3.80
2022-09-17T10:28:35.889Z,3.40
2022-09-17T10:31:10.403Z,3.90
2022-09-17T10:33:55.836Z,4.45
2022-09-17T10:36:48.926Z,4.68
2022-09-17T10:39:27.811Z,4.03
2022-09-17T10:42:01.253Z,3.53
2022-09-17T10:44:30.145Z,5.40
2022-09-17T10:47:06.763Z,5.13
2022-09-17T10:49:38.104Z,5.68
2022-09-17T10:52:18.726Z,4.97
2022-09-17T10:55:15.585Z,4.15
2022-09-17T10:57:57.657Z,3.90
2022-09-17T11:00:24.902Z,4.05
2022-09-17T11:03:48.528Z,4.28
2022-09-17T11:06:25.841Z,4.25
2022-09-17T11:09:16.198Z,5.13
2022-09-17T11:11:57.533Z,4.38
2022-09-17T11:14:54.926Z,4.18
2022-09-17T11:17:56.484Z,5.00
2022-09-17T11:20:31.829Z,4.63
2022-09-17T11:23:16.539Z,4.25
2022-09-17T11:25:56.102Z,3.92
2022-09-17T11:28:34.245Z,4.35
2022-09-17T11:31:38.720Z,3.92
2022-09-17T11:34:18.333Z,4.35
2022-09-17T11:37:11.249Z,4.20
2022-09-17T11:39:43.851Z,5.78
2022-09-17T11:42:14.793Z,3.88
2022-09-17T11:44:47.797Z,3.80
2022-09-17T11:47:39.260Z,5.35
2022-09-17T11:50:22.054Z,4.60
2022-09-17T11:53:07.009Z,4.68
2022-09-17T11:55:40.450Z,5.78
2022-09-17T11:58:32.803Z,3.88
2022-09-17T12:01:04.137Z,4.22
2022-09-17T12:03:35.101Z,4.15
2022-09-17T12:06:08.533Z,3.60
2022-09-17T12:08:37.916Z,4.10
2022-09-17T12:11:07.368Z,4.10
2022-09-17T12:13:42.575Z,4.72
2022-09-17T12:16:22.727Z,5.13
2022-09-17T12:18:52.377Z,4.40
2022-09-17T12:21:23.187Z,3.28
2022-09-17T12:24:19.068Z,4.18
2022-09-17T12:27:04.233Z,5.28
2022-09-17T12:30:00.118Z,5.00
2022-09-17T12:33:06.634Z,4.55
2022-09-17T12:36:07.029Z,4.28
2022-09-17T12:38:59.447Z,4.05
2022-09-17T12:41:53.381Z,3.92
2022-09-17T12:44:22.751Z,4.25
2022-09-17T12:47:04.565Z,5.22
2022-09-17T12:49:54.696Z,4.70
2022-09-17T12:52:30.241Z,4.13
2022-09-17T12:55:24.895Z,4.53
2022-09-17T12:58:16.033Z,6.13
2022-09-17T13:00:46.443Z,5.03
2022-09-17T13:03:16.403Z,5.45
2022-09-17T13:06:10.096Z,5.25
2022-09-17T13:09:05.372Z,4.43
2022-09-17T13:11:50.158Z,7.03
2022-09-17T13:14:42.516Z,5.13
2022-09-17T13:17:19.875Z,4.65
2022-09-17T13:20:04.830Z,5.07
2022-09-17T13:22:34.125Z,6.85
2022-09-17T13:25:09.477Z,6.20
2022-09-17T13:27:37.724Z,6.13
2022-09-17T13:30:06.752Z,5.93
2022-09-17T13:32:33.449Z,4.88
2022-09-17T13:35:22.710Z,6.53
2022-09-17T13:37:52.594Z,5.65
2022-09-17T13:40:32.124Z,5.88
2022-09-17T13:43:13.932Z,4.35
2022-09-17T13:45:58.927Z,6.88
2022-09-17T13:48:27.783Z,8.48
2022-09-17T13:50:54.502Z,6.03
2022-09-17T13:53:26.838Z,5.88
2022-09-17T13:55:55.305Z,6.28
2022-09-17T13:58:23.267Z,9.63
2022-09-17T14:00:56.491Z,5.97
2022-09-17T14:03:34.229Z,6.40
2022-09-17T14:06:14.921Z,8.20
2022-09-17T14:08:44.708Z,7.47
2022-09-17T14:11:23.864Z,7.95
2022-09-17T14:13:55.240Z,10.95
2022-09-17T14:16:46.146Z,7.28
2022-09-17T14:19:15.595Z,9.50
2022-09-17T14:22:08.074Z,6.95
2022-09-17T14:24:46.454Z,6.85
2022-09-17T14:27:42.215Z,4.93
2022-09-17T14:30:22.185Z,5.97
2022-09-17T14:33:00.867Z,3.55
2022-09-17T14:35:43.810Z,5.40
2022-09-17T14:38:20.285Z,3.78
2022-09-17T14:40:49.684Z,2.95
2022-09-17T14:43:21.562Z,3.95
2022-09-17T14:45:51.037Z,3.22
2022-09-17T14:48:31.452Z,5.20
2022-09-17T14:51:22.547Z,2.75
2022-09-17T14:54:07.356Z,2.95
2022-09-17T14:56:35.481Z,2.30
2022-09-17T14:59:02.373Z,3.65
2022-09-17T15:01:30.488Z,2.50
2022-09-17T15:04:12.540Z,4.28
2022-09-17T15:06:40.704Z,3.70
2022-09-17T15:09:15.861Z,3.10
2022-09-17T15:11:43.837Z,9.02
2022-09-17T15:14:17.130Z,3.80
2022-09-17T15:16:51.545Z,4.57
2022-09-17T15:19:26.160Z,6.88
2022-09-17T15:21:55.376Z,5.07
2022-09-17T15:24:42.103Z,5.57
2022-09-17T15:27:11.445Z,5.75
2022-09-17T15:29:38.850Z,4.82
2022-09-17T15:32:06.605Z,5.10
2022-09-17T15:34:33.271Z,4.43
2022-09-17T15:37:28.374Z,2.42
2022-09-17T15:39:56.690Z,4.30
2022-09-17T15:42:28.382Z,5.63
2022-09-17T15:45:16.458Z,3.90
2022-09-17T15:47:49.742Z,2.92
2022-09-17T15:50:29.063Z,2.92
2022-09-17T15:53:12.867Z,6.97
2022-09-17T15:55:48.358Z,3.83
2022-09-17T15:58:28.433Z,3.33
2022-09-17T16:01:17.084Z,4.13
2022-09-17T16:03:43.800Z,5.97
2022-09-17T16:06:19.412Z,4.45
2022-09-17T16:08:47.599Z,6.50
2022-09-17T16:11:18.000Z,5.75
2022-09-17T16:13:51.329Z,4.75
2022-09-17T16:16:20.813Z,5.35
2022-09-17T16:18:48.757Z,4.32
2022-09-17T16:21:16.856Z,4.57
2022-09-17T16:23:44.236Z,4.38
2022-09-17T16:26:15.605Z,4.88
2022-09-17T16:28:42.785Z,3.92
2022-09-17T16:31:13.205Z,4.15
2022-09-17T16:33:39.958Z,4.65
2022-09-17T16:36:06.798Z,5.30
2022-09-17T16:38:33.529Z,6.43
2022-09-17T16:41:00.168Z,7.18
2022-09-17T16:43:26.820Z,5.78
2022-09-17T16:46:00.167Z,4.97
2022-09-17T16:48:26.798Z,5.68
2022-09-17T16:50:53.482Z,5.65
2022-09-17T16:53:20.252Z,7.50
2022-09-17T16:55:47.301Z,6.97
2022-09-17T16:58:13.934Z,7.97
2022-09-17T17:00:43.114Z,7.50
2022-09-17T17:03:12.199Z,7.30
2022-09-17T17:05:39.648Z,8.15
2022-09-17T17:08:07.143Z,8.90
2022-09-17T17:10:34.200Z,10.00
2022-09-17T17:13:01.292Z,9.98
2022-09-17T17:15:27.979Z,10.15
2022-09-17T17:17:54.658Z,9.30
2022-09-17T17:20:21.441Z,12.82
2022-09-17T17:22:48.250Z,10.75
2022-09-17T17:25:14.987Z,10.50
2022-09-17T17:27:42.065Z,9.75
2022-09-17T17:30:09.867Z,9.13
2022-09-17T17:32:37.360Z,9.45
2022-09-17T17:35:05.002Z,9.13
2022-09-17T17:37:31.647Z,12.73
2022-09-17T17:39:58.395Z,9.55
2022-09-17T17:42:25.234Z,8.77
2022-09-17T17:44:52.424Z,8.85
2022-09-17T17:47:19.153Z,6.95
2022-09-17T17:49:45.780Z,7.43
2022-09-17T17:52:12.412Z,6.20
2022-09-17T17:54:39.066Z,7.28
2022-09-17T17:57:05.789Z,8.70
2022-09-17T17:59:32.610Z,8.23
2022-09-17T18:01:59.313Z,7.47
2022-09-17T18:04:26.242Z,7.60
2022-09-17T18:06:52.861Z,8.48
2022-09-17T18:09:19.561Z,10.40
2022-09-17T18:11:46.326Z,11.45
2022-09-17T18:14:13.909Z,9.32
2022-09-17T18:16:40.816Z,9.35
2022-09-17T18:19:07.708Z,8.90
2022-09-17T18:21:34.437Z,9.55
2022-09-17T18:24:01.376Z,7.72
2022-09-17T18:26:28.595Z,7.90
2022-09-17T18:28:55.662Z,12.20
2022-09-17T18:31:23.478Z,14.20
2022-09-17T18:34:02.018Z,20.20
2022-09-17T18:36:31.007Z,16.60
2022-09-17T18:39:32.896Z,10.05
2022-09-17T18:41:53.629Z,6.78
2022-09-17T18:44:21.834Z,6.07
2022-09-17T18:46:50.244Z,6.20
2022-09-17T18:49:17.670Z,7.10
2022-09-17T18:51:44.520Z,8.25
2022-09-17T18:54:12.933Z,10.68
2022-09-17T18:56:41.521Z,15.68
2022-09-17T18:59:08.623Z,21.98
2022-09-17T19:01:35.921Z,27.38
2022-09-17T19:04:03.068Z,25.13
2022-09-17T19:06:30.590Z,25.02
2022-09-17T19:09:00.730Z,22.63
2022-09-17T19:11:28.027Z,20.20
2022-09-17T19:13:54.829Z,18.30
2022-09-17T19:16:21.555Z,18.20
2022-09-17T19:18:48.259Z,17.05
2022-09-17T19:21:17.152Z,11.15
2022-09-17T19:26:13.288Z,11.20
2022-09-17T19:28:39.995Z,9.93
2022-09-17T19:31:10.706Z,8.05
2022-09-17T19:33:37.561Z,8.07
2022-09-17T19:36:10.857Z,9.38
2022-09-17T19:38:37.753Z,8.23
2022-09-17T19:41:07.107Z,7.65
2022-09-17T19:43:34.231Z,8.30
2022-09-17T19:46:21.867Z,8.55
2022-09-17T19:48:49.461Z,9.82
2022-09-17T19:51:16.948Z,9.05
2022-09-17T19:53:43.683Z,8.52
2022-09-17T19:56:15.040Z,8.38
2022-09-17T19:58:41.923Z,8.25
2022-09-17T20:01:08.798Z,8.30
2022-09-17T20:03:35.731Z,8.32
2022-09-17T20:06:04.490Z,7.68
2022-09-17T20:08:31.636Z,6.28
2022-09-17T20:11:08.653Z,8.05
2022-09-17T20:13:35.729Z,9.60
2022-09-17T20:16:06.523Z,10.13
2022-09-17T20:18:34.448Z,8.82
2022-09-17T20:21:01.125Z,6.95
2022-09-17T20:23:31.787Z,6.90
2022-09-17T20:25:58.488Z,7.65
2022-09-17T20:28:25.126Z,6.47
2022-09-17T20:31:03.607Z,5.68
2022-09-17T20:33:30.577Z,6.13
2022-09-17T20:36:09.191Z,7.00
2022-09-17T20:41:22.660Z,6.10
2022-09-17T20:43:51.238Z,5.00
2022-09-17T20:46:18.865Z,6.43
2022-09-17T20:48:45.832Z,6.85
2022-09-17T20:51:14.879Z,7.00
2022-09-17T20:53:42.253Z,7.57
2022-09-17T20:56:35.101Z,7.72
2022-09-17T20:59:09.556Z,8.23
2022-09-17T21:01:37.820Z,8.75
2022-09-17T21:04:06.987Z,8.13
2022-09-17T21:06:38.894Z,7.53
2022-09-17T21:09:10.393Z,7.72
2022-09-17T21:11:37.158Z,7.22
2022-09-17T21:14:04.360Z,6.95
2022-09-17T21:16:31.562Z,4.47
2022-09-17T21:19:01.539Z,5.40
2022-09-17T21:21:28.613Z,6.22
2022-09-17T21:24:00.037Z,4.80
2022-09-17T21:26:27.155Z,5.65
2022-09-17T21:28:55.653Z,5.53
2022-09-17T21:31:27.355Z,3.83
2022-09-17T21:33:59.844Z,3.65
2022-09-17T21:36:29.197Z,4.65
2022-09-17T21:39:00.753Z,4.40
2022-09-17T21:41:27.514Z,3.55
2022-09-17T21:43:54.204Z,3.15
2022-09-17T21:46:23.668Z,3.40
2022-09-17T21:48:52.942Z,4.38
2022-09-17T21:51:34.022Z,4.13
2022-09-17T21:54:05.915Z,3.67
2022-09-17T21:56:33.405Z,3.90
2022-09-17T21:59:02.344Z,4.22
2022-09-17T22:03:59.087Z,4.25
2022-09-17T22:06:28.604Z,4.45
2022-09-17T22:08:56.642Z,3.33
2022-09-17T22:11:32.472Z,4.25
2022-09-17T22:14:02.269Z,3.72
2022-09-17T22:16:32.031Z,3.28
2022-09-17T22:19:03.210Z,3.97
2022-09-17T22:21:32.642Z,4.13
2022-09-17T22:24:00.886Z,3.50
2022-09-17T22:26:29.863Z,3.65
2022-09-17T22:31:23.282Z,4.30
2022-09-17T22:33:50.589Z,4.72
2022-09-17T22:36:23.311Z,3.58
2022-09-17T22:38:52.375Z,3.63
2022-09-17T22:41:22.650Z,3.17
2022-09-17T22:43:56.028Z,5.07
2022-09-17T22:46:28.692Z,4.28
2022-09-17T22:48:55.907Z,3.13
2022-09-17T22:51:23.259Z,3.90
2022-09-17T22:53:49.940Z,3.80
2022-09-17T22:56:20.154Z,3.72
2022-09-17T22:58:47.907Z,2.42
2022-09-17T23:01:17.633Z,3.05
2022-09-17T23:03:45.225Z,3.13
2022-09-17T23:06:16.559Z,2.88
2022-09-17T23:08:43.293Z,3.00
2022-09-17T23:11:19.510Z,3.65
2022-09-17T23:13:46.989Z,3.30
2022-09-17T23:16:14.166Z,3.20
2022-09-17T23:18:41.167Z,2.40
2022-09-17T23:21:13.463Z,3.35
2022-09-17T23:23:41.274Z,2.25
2022-09-17T23:26:11.453Z,3.17
2022-09-17T23:28:38.853Z,2.70
2022-09-17T23:31:08.859Z,3.25
2022-09-17T23:33:36.009Z,2.20
2022-09-17T23:36:04.633Z,2.85
2022-09-17T23:38:31.413Z,2.72
2022-09-17T23:41:07.846Z,2.50
2022-09-17T23:43:34.460Z,2.70
2022-09-17T23:46:01.164Z,2.63
2022-09-17T23:48:27.795Z,2.35
2022-09-17T23:50:54.440Z,2.65
2022-09-17T23:53:21.140Z,3.47
2022-09-17T23:55:49.139Z,3.17
2022-09-17T23:58:16.513Z,3.08
